sensor_id;sensor_type;location;lat;lon;timestamp;P1;durP1;ratioP1;P2;durP2;ratioP2
30617;SDS011;17384;51.214;9.202;2023-03-03T00:01:15;192.05;;;58.80;;
30617;SDS011;17384;51.214;9.202;2023-03-03T00:03:41;171.75;;;55.47;;
30617;SDS011;17384;51.214;9.202;2023-03-03T00:06:11;175.50;;;56.72;;
30617;SDS011;17384;51.214;9.202;2023-03-03T00:08:38;154.68;;;53.30;;
30617;SDS011;17384;51.214;9.202;2023-03-03T00:11:05;159.25;;;52.88;;
30617;SDS011;17384;51.214;9.202;2023-03-03T00:13:32;162.48;;;52.88;;
30617;SDS011;17384;51.214;9.202;2023-03-03T00:18:56;156.23;;;52.95;;
30617;SDS011;17384;51.214;9.202;2023-03-03T00:21:38;170.68;;;55.60;;
30617;SDS011;17384;51.214;9.202;2023-03-03T00:26:54;165.38;;;54.75;;
30617;SDS011;17384;51.214;9.202;2023-03-03T00:29:29;161.98;;;52.35;;
30617;SDS011;17384;51.214;9.202;2023-03-03T00:31:59;158.27;;;52.28;;
30617;SDS011;17384;51.214;9.202;2023-03-03T00:34:52;161.48;;;52.20;;
30617;SDS011;17384;51.214;9.202;2023-03-03T00:37:30;154.30;;;53.15;;
30617;SDS011;17384;51.214;9.202;2023-03-03T00:43:12;135.60;;;48.38;;
30617;SDS011;17384;51.214;9.202;2023-03-03T00:45:45;144.20;;;51.00;;
30617;SDS011;17384;51.214;9.202;2023-03-03T00:51:07;133.52;;;46.90;;
30617;SDS011;17384;51.214;9.202;2023-03-03T00:53:35;128.95;;;48.30;;
30617;SDS011;17384;51.214;9.202;2023-03-03T00:56:00;128.65;;;45.17;;
30617;SDS011;17384;51.214;9.202;2023-03-03T00:58:26;130.77;;;46.38;;
30617;SDS011;17384;51.214;9.202;2023-03-03T01:00:52;130.85;;;45.78;;
30617;SDS011;17384;51.214;9.202;2023-03-03T01:03:21;122.07;;;45.78;;
30617;SDS011;17384;51.214;9.202;2023-03-03T01:05:49;122.43;;;42.15;;
30617;SDS011;17384;51.214;9.202;2023-03-03T01:08:16;123.07;;;43.75;;
30617;SDS011;17384;51.214;9.202;2023-03-03T01:10:44;114.35;;;41.95;;
30617;SDS011;17384;51.214;9.202;2023-03-03T01:15:42;120.00;;;42.92;;
30617;SDS011;17384;51.214;9.202;2023-03-03T01:18:09;112.78;;;40.47;;
30617;SDS011;17384;51.214;9.202;2023-03-03T01:20:36;111.25;;;40.63;;
30617;SDS011;17384;51.214;9.202;2023-03-03T01:23:02;107.05;;;41.05;;
30617;SDS011;17384;51.214;9.202;2023-03-03T01:25:28;98.18;;;39.13;;
30617;SDS011;17384;51.214;9.202;2023-03-03T01:27:54;108.07;;;38.80;;
30617;SDS011;17384;51.214;9.202;2023-03-03T01:30:20;102.57;;;39.78;;
30617;SDS011;17384;51.214;9.202;2023-03-03T01:32:46;104.13;;;41.58;;
30617;SDS011;17384;51.214;9.202;2023-03-03T01:35:11;95.45;;;40.30;;
30617;SDS011;17384;51.214;9.202;2023-03-03T01:37:37;111.65;;;39.08;;
30617;SDS011;17384;51.214;9.202;2023-03-03T01:40:03;99.20;;;38.17;;
30617;SDS011;17384;51.214;9.202;2023-03-03T01:42:31;101.28;;;37.25;;
30617;SDS011;17384;51.214;9.202;2023-03-03T01:45:09;91.03;;;36.13;;
30617;SDS011;17384;51.214;9.202;2023-03-03T01:47:40;90.00;;;37.50;;
30617;SDS011;17384;51.214;9.202;2023-03-03T01:50:11;99.25;;;38.35;;
30617;SDS011;17384;51.214;9.202;2023-03-03T01:52:42;104.13;;;38.08;;
30617;SDS011;17384;51.214;9.202;2023-03-03T01:55:11;90.25;;;35.20;;
30617;SDS011;17384;51.214;9.202;2023-03-03T01:57:43;89.45;;;35.55;;
30617;SDS011;17384;51.214;9.202;2023-03-03T02:00:13;85.03;;;34.47;;
30617;SDS011;17384;51.214;9.202;2023-03-03T02:02:39;85.68;;;33.90;;
30617;SDS011;17384;51.214;9.202;2023-03-03T02:05:07;88.72;;;34.53;;
30617;SDS011;17384;51.214;9.202;2023-03-03T02:07:34;85.35;;;33.88;;
30617;SDS011;17384;51.214;9.202;2023-03-03T02:10:14;90.93;;;35.17;;
30617;SDS011;17384;51.214;9.202;2023-03-03T02:12:48;86.53;;;34.30;;
30617;SDS011;17384;51.214;9.202;2023-03-03T02:15:17;88.22;;;33.67;;
30617;SDS011;17384;51.214;9.202;2023-03-03T02:18:02;79.15;;;33.78;;
30617;SDS011;17384;51.214;9.202;2023-03-03T02:20:36;75.82;;;30.00;;
30617;SDS011;17384;51.214;9.202;2023-03-03T02:26:02;78.80;;;30.63;;
30617;SDS011;17384;51.214;9.202;2023-03-03T02:28:31;80.55;;;33.22;;
30617;SDS011;17384;51.214;9.202;2023-03-03T02:30:59;80.30;;;33.50;;
30617;SDS011;17384;51.214;9.202;2023-03-03T02:33:25;79.15;;;31.90;;
30617;SDS011;17384;51.214;9.202;2023-03-03T02:35:52;75.68;;;31.23;;
30617;SDS011;17384;51.214;9.202;2023-03-03T02:38:20;88.57;;;33.60;;
30617;SDS011;17384;51.214;9.202;2023-03-03T02:46:28;70.22;;;29.42;;
30617;SDS011;17384;51.214;9.202;2023-03-03T02:48:57;74.43;;;30.55;;
30617;SDS011;17384;51.214;9.202;2023-03-03T02:51:23;78.43;;;31.85;;
30617;SDS011;17384;51.214;9.202;2023-03-03T02:53:48;77.60;;;31.10;;
30617;SDS011;17384;51.214;9.202;2023-03-03T02:56:14;67.05;;;29.10;;
30617;SDS011;17384;51.214;9.202;2023-03-03T02:58:39;82.63;;;31.92;;
30617;SDS011;17384;51.214;9.202;2023-03-03T03:01:05;82.88;;;30.83;;
30617;SDS011;17384;51.214;9.202;2023-03-03T03:03:30;77.10;;;32.28;;
30617;SDS011;17384;51.214;9.202;2023-03-03T03:05:56;74.85;;;30.02;;
30617;SDS011;17384;51.214;9.202;2023-03-03T03:08:22;84.00;;;33.05;;
30617;SDS011;17384;51.214;9.202;2023-03-03T03:10:47;76.45;;;29.73;;
30617;SDS011;17384;51.214;9.202;2023-03-03T03:13:13;81.32;;;28.98;;
30617;SDS011;17384;51.214;9.202;2023-03-03T03:15:38;68.13;;;29.55;;
30617;SDS011;17384;51.214;9.202;2023-03-03T03:18:04;87.45;;;29.92;;
30617;SDS011;17384;51.214;9.202;2023-03-03T03:20:31;74.07;;;29.27;;
30617;SDS011;17384;51.214;9.202;2023-03-03T03:22:59;78.85;;;29.83;;
30617;SDS011;17384;51.214;9.202;2023-03-03T03:25:25;83.55;;;32.13;;
30617;SDS011;17384;51.214;9.202;2023-03-03T03:27:50;93.03;;;31.42;;
30617;SDS011;17384;51.214;9.202;2023-03-03T03:30:15;86.22;;;32.42;;
30617;SDS011;17384;51.214;9.202;2023-03-03T03:32:41;87.38;;;30.80;;
30617;SDS011;17384;51.214;9.202;2023-03-03T03:35:07;83.63;;;32.58;;
30617;SDS011;17384;51.214;9.202;2023-03-03T03:37:33;99.00;;;34.55;;
30617;SDS011;17384;51.214;9.202;2023-03-03T03:39:58;101.55;;;34.53;;
30617;SDS011;17384;51.214;9.202;2023-03-03T03:42:24;90.57;;;33.70;;
30617;SDS011;17384;51.214;9.202;2023-03-03T03:44:49;103.28;;;34.22;;
30617;SDS011;17384;51.214;9.202;2023-03-03T03:47:15;97.93;;;32.35;;
30617;SDS011;17384;51.214;9.202;2023-03-03T03:49:41;104.35;;;33.75;;
30617;SDS011;17384;51.214;9.202;2023-03-03T03:52:06;112.95;;;35.13;;
30617;SDS011;17384;51.214;9.202;2023-03-03T03:54:32;94.05;;;35.15;;
30617;SDS011;17384;51.214;9.202;2023-03-03T03:56:57;94.72;;;34.22;;
30617;SDS011;17384;51.214;9.202;2023-03-03T03:59:22;106.18;;;34.95;;
30617;SDS011;17384;51.214;9.202;2023-03-03T04:01:48;99.82;;;34.20;;
30617;SDS011;17384;51.214;9.202;2023-03-03T04:04:14;96.80;;;35.45;;
30617;SDS011;17384;51.214;9.202;2023-03-03T04:06:40;112.95;;;35.33;;
30617;SDS011;17384;51.214;9.202;2023-03-03T04:09:05;92.97;;;33.53;;
30617;SDS011;17384;51.214;9.202;2023-03-03T04:11:31;120.13;;;35.05;;
30617;SDS011;17384;51.214;9.202;2023-03-03T04:13:56;105.18;;;34.80;;
30617;SDS011;17384;51.214;9.202;2023-03-03T04:16:22;110.72;;;33.97;;
30617;SDS011;17384;51.214;9.202;2023-03-03T04:18:48;117.30;;;34.00;;
30617;SDS011;17384;51.214;9.202;2023-03-03T04:21:13;98.97;;;33.60;;
30617;SDS011;17384;51.214;9.202;2023-03-03T04:23:39;99.75;;;33.80;;
30617;SDS011;17384;51.214;9.202;2023-03-03T04:26:06;111.25;;;34.85;;
30617;SDS011;17384;51.214;9.202;2023-03-03T04:28:32;110.45;;;34.58;;
30617;SDS011;17384;51.214;9.202;2023-03-03T04:30:58;103.05;;;32.92;;
30617;SDS011;17384;51.214;9.202;2023-03-03T04:33:24;91.70;;;32.28;;
30617;SDS011;17384;51.214;9.202;2023-03-03T04:35:49;96.47;;;31.83;;
30617;SDS011;17384;51.214;9.202;2023-03-03T04:38:15;100.55;;;32.13;;
30617;SDS011;17384;51.214;9.202;2023-03-03T04:40:41;84.22;;;32.15;;
30617;SDS011;17384;51.214;9.202;2023-03-03T04:43:07;94.93;;;32.42;;
30617;SDS011;17384;51.214;9.202;2023-03-03T04:45:34;90.70;;;30.85;;
30617;SDS011;17384;51.214;9.202;2023-03-03T04:48:00;85.20;;;29.08;;
30617;SDS011;17384;51.214;9.202;2023-03-03T04:50:25;84.20;;;27.83;;
30617;SDS011;17384;51.214;9.202;2023-03-03T04:52:51;75.40;;;28.23;;
30617;SDS011;17384;51.214;9.202;2023-03-03T04:55:17;80.25;;;27.92;;
30617;SDS011;17384;51.214;9.202;2023-03-03T04:57:42;71.07;;;26.00;;
30617;SDS011;17384;51.214;9.202;2023-03-03T05:00:09;79.13;;;27.65;;
30617;SDS011;17384;51.214;9.202;2023-03-03T05:02:37;67.25;;;25.80;;
30617;SDS011;17384;51.214;9.202;2023-03-03T05:05:04;81.50;;;27.40;;
30617;SDS011;17384;51.214;9.202;2023-03-03T05:07:30;67.57;;;26.15;;
30617;SDS011;17384;51.214;9.202;2023-03-03T05:09:56;73.43;;;27.00;;
30617;SDS011;17384;51.214;9.202;2023-03-03T05:12:21;70.07;;;26.02;;
30617;SDS011;17384;51.214;9.202;2023-03-03T05:14:47;76.57;;;24.95;;
30617;SDS011;17384;51.214;9.202;2023-03-03T05:17:12;64.72;;;25.27;;
30617;SDS011;17384;51.214;9.202;2023-03-03T05:19:38;68.85;;;24.92;;
30617;SDS011;17384;51.214;9.202;2023-03-03T05:22:04;77.68;;;24.85;;
30617;SDS011;17384;51.214;9.202;2023-03-03T05:24:30;68.03;;;24.75;;
30617;SDS011;17384;51.214;9.202;2023-03-03T05:26:55;70.25;;;27.02;;
30617;SDS011;17384;51.214;9.202;2023-03-03T05:29:21;114.60;;;45.13;;
30617;SDS011;17384;51.214;9.202;2023-03-03T05:31:46;95.28;;;35.85;;
30617;SDS011;17384;51.214;9.202;2023-03-03T05:34:12;93.28;;;40.97;;
30617;SDS011;17384;51.214;9.202;2023-03-03T05:36:37;96.80;;;34.92;;
30617;SDS011;17384;51.214;9.202;2023-03-03T05:39:03;88.20;;;33.40;;
30617;SDS011;17384;51.214;9.202;2023-03-03T05:41:28;106.80;;;37.03;;
30617;SDS011;17384;51.214;9.202;2023-03-03T05:43:54;101.22;;;36.00;;
30617;SDS011;17384;51.214;9.202;2023-03-03T05:46:19;92.60;;;34.42;;
30617;SDS011;17384;51.214;9.202;2023-03-03T05:48:45;87.22;;;33.33;;
30617;SDS011;17384;51.214;9.202;2023-03-03T05:51:10;89.63;;;33.75;;
30617;SDS011;17384;51.214;9.202;2023-03-03T05:53:36;81.63;;;31.77;;
30617;SDS011;17384;51.214;9.202;2023-03-03T05:56:02;81.93;;;30.48;;
30617;SDS011;17384;51.214;9.202;2023-03-03T05:58:28;93.07;;;37.38;;
30617;SDS011;17384;51.214;9.202;2023-03-03T06:00:54;88.82;;;32.50;;
30617;SDS011;17384;51.214;9.202;2023-03-03T06:03:19;82.70;;;30.88;;
30617;SDS011;17384;51.214;9.202;2023-03-03T06:05:45;81.40;;;29.10;;
30617;SDS011;17384;51.214;9.202;2023-03-03T06:08:11;83.03;;;32.17;;
30617;SDS011;17384;51.214;9.202;2023-03-03T06:10:36;81.93;;;35.17;;
30617;SDS011;17384;51.214;9.202;2023-03-03T06:13:02;88.63;;;42.40;;
30617;SDS011;17384;51.214;9.202;2023-03-03T06:15:27;80.70;;;35.90;;
30617;SDS011;17384;51.214;9.202;2023-03-03T06:17:53;91.35;;;38.45;;
30617;SDS011;17384;51.214;9.202;2023-03-03T06:20:18;104.10;;;46.30;;
30617;SDS011;17384;51.214;9.202;2023-03-03T06:22:44;101.00;;;39.75;;
30617;SDS011;17384;51.214;9.202;2023-03-03T06:25:09;71.60;;;28.75;;
30617;SDS011;17384;51.214;9.202;2023-03-03T06:27:35;69.72;;;28.77;;
30617;SDS011;17384;51.214;9.202;2023-03-03T06:30:00;74.70;;;35.88;;
30617;SDS011;17384;51.214;9.202;2023-03-03T06:32:26;68.45;;;29.27;;
30617;SDS011;17384;51.214;9.202;2023-03-03T06:34:52;67.45;;;29.27;;
30617;SDS011;17384;51.214;9.202;2023-03-03T06:37:18;64.93;;;29.40;;
30617;SDS011;17384;51.214;9.202;2023-03-03T06:39:44;59.60;;;23.88;;
30617;SDS011;17384;51.214;9.202;2023-03-03T06:42:09;73.53;;;28.05;;
30617;SDS011;17384;51.214;9.202;2023-03-03T06:44:35;62.55;;;33.67;;
30617;SDS011;17384;51.214;9.202;2023-03-03T06:47:00;56.60;;;25.85;;
30617;SDS011;17384;51.214;9.202;2023-03-03T06:49:27;61.78;;;24.70;;
30617;SDS011;17384;51.214;9.202;2023-03-03T06:51:52;56.30;;;24.73;;
30617;SDS011;17384;51.214;9.202;2023-03-03T06:54:19;64.50;;;27.67;;
30617;SDS011;17384;51.214;9.202;2023-03-03T06:56:51;67.07;;;24.50;;
30617;SDS011;17384;51.214;9.202;2023-03-03T06:59:22;68.20;;;25.98;;
30617;SDS011;17384;51.214;9.202;2023-03-03T07:01:48;69.07;;;23.70;;
30617;SDS011;17384;51.214;9.202;2023-03-03T07:06:43;74.20;;;29.33;;
30617;SDS011;17384;51.214;9.202;2023-03-03T07:09:26;83.35;;;33.35;;
30617;SDS011;17384;51.214;9.202;2023-03-03T07:11:55;78.43;;;33.92;;
30617;SDS011;17384;51.214;9.202;2023-03-03T07:14:25;83.23;;;38.73;;
30617;SDS011;17384;51.214;9.202;2023-03-03T07:16:51;86.57;;;38.30;;
30617;SDS011;17384;51.214;9.202;2023-03-03T07:19:34;74.43;;;31.05;;
30617;SDS011;17384;51.214;9.202;2023-03-03T07:24:38;62.42;;;23.23;;
30617;SDS011;17384;51.214;9.202;2023-03-03T07:29:39;65.22;;;23.88;;
30617;SDS011;17384;51.214;9.202;2023-03-03T07:32:09;62.13;;;23.95;;
30617;SDS011;17384;51.214;9.202;2023-03-03T07:34:46;65.53;;;25.75;;
30617;SDS011;17384;51.214;9.202;2023-03-03T07:37:17;62.50;;;26.95;;
30617;SDS011;17384;51.214;9.202;2023-03-03T07:39:55;80.30;;;29.65;;
30617;SDS011;17384;51.214;9.202;2023-03-03T07:44:56;69.32;;;25.80;;
30617;SDS011;17384;51.214;9.202;2023-03-03T07:47:25;55.03;;;23.88;;
30617;SDS011;17384;51.214;9.202;2023-03-03T07:49:51;53.33;;;21.73;;
30617;SDS011;17384;51.214;9.202;2023-03-03T07:52:23;63.38;;;25.13;;
30617;SDS011;17384;51.214;9.202;2023-03-03T07:54:56;62.45;;;24.23;;
30617;SDS011;17384;51.214;9.202;2023-03-03T07:57:25;64.47;;;25.35;;
30617;SDS011;17384;51.214;9.202;2023-03-03T08:05:35;50.92;;;19.45;;
30617;SDS011;17384;51.214;9.202;2023-03-03T08:10:50;51.92;;;22.63;;
30617;SDS011;17384;51.214;9.202;2023-03-03T08:13:39;42.60;;;17.15;;
30617;SDS011;17384;51.214;9.202;2023-03-03T08:18:40;41.05;;;16.05;;
30617;SDS011;17384;51.214;9.202;2023-03-03T08:21:13;42.33;;;19.50;;
30617;SDS011;17384;51.214;9.202;2023-03-03T08:23:43;40.72;;;17.13;;
30617;SDS011;17384;51.214;9.202;2023-03-03T08:26:10;37.50;;;16.75;;
30617;SDS011;17384;51.214;9.202;2023-03-03T08:28:38;40.53;;;16.63;;
30617;SDS011;17384;51.214;9.202;2023-03-03T08:31:03;37.83;;;15.90;;
30617;SDS011;17384;51.214;9.202;2023-03-03T08:33:29;44.17;;;17.05;;
30617;SDS011;17384;51.214;9.202;2023-03-03T08:35:54;37.80;;;16.95;;
30617;SDS011;17384;51.214;9.202;2023-03-03T08:38:20;38.33;;;17.02;;
30617;SDS011;17384;51.214;9.202;2023-03-03T08:40:47;38.33;;;16.00;;
30617;SDS011;17384;51.214;9.202;2023-03-03T08:43:13;43.42;;;16.73;;
30617;SDS011;17384;51.214;9.202;2023-03-03T08:45:44;38.67;;;15.52;;
30617;SDS011;17384;51.214;9.202;2023-03-03T08:48:11;42.00;;;16.20;;
30617;SDS011;17384;51.214;9.202;2023-03-03T08:50:37;42.17;;;16.05;;
30617;SDS011;17384;51.214;9.202;2023-03-03T08:53:02;38.22;;;15.20;;
30617;SDS011;17384;51.214;9.202;2023-03-03T08:55:28;40.67;;;17.25;;
30617;SDS011;17384;51.214;9.202;2023-03-03T08:57:54;41.40;;;17.75;;
30617;SDS011;17384;51.214;9.202;2023-03-03T09:00:19;37.70;;;15.73;;
30617;SDS011;17384;51.214;9.202;2023-03-03T09:02:45;38.55;;;16.38;;
30617;SDS011;17384;51.214;9.202;2023-03-03T09:05:11;37.15;;;15.63;;
30617;SDS011;17384;51.214;9.202;2023-03-03T09:07:38;36.40;;;16.27;;
30617;SDS011;17384;51.214;9.202;2023-03-03T09:10:04;40.60;;;14.75;;
30617;SDS011;17384;51.214;9.202;2023-03-03T09:12:33;36.20;;;14.88;;
30617;SDS011;17384;51.214;9.202;2023-03-03T09:15:18;35.63;;;15.30;;
30617;SDS011;17384;51.214;9.202;2023-03-03T09:17:47;37.58;;;15.82;;
30617;SDS011;17384;51.214;9.202;2023-03-03T09:25:48;32.20;;;13.57;;
30617;SDS011;17384;51.214;9.202;2023-03-03T09:28:32;38.28;;;14.60;;
30617;SDS011;17384;51.214;9.202;2023-03-03T09:31:01;31.30;;;13.90;;
30617;SDS011;17384;51.214;9.202;2023-03-03T09:33:40;36.67;;;15.30;;
30617;SDS011;17384;51.214;9.202;2023-03-03T09:38:43;36.97;;;15.55;;
30617;SDS011;17384;51.214;9.202;2023-03-03T10:01:00;34.38;;;14.40;;
30617;SDS011;17384;51.214;9.202;2023-03-03T10:03:50;30.52;;;13.95;;
30617;SDS011;17384;51.214;9.202;2023-03-03T10:06:32;31.48;;;14.93;;
30617;SDS011;17384;51.214;9.202;2023-03-03T10:11:59;32.47;;;14.75;;
30617;SDS011;17384;51.214;9.202;2023-03-03T10:17:29;31.17;;;14.88;;
30617;SDS011;17384;51.214;9.202;2023-03-03T10:22:54;42.20;;;18.45;;
30617;SDS011;17384;51.214;9.202;2023-03-03T10:44:39;49.05;;;19.15;;
30617;SDS011;17384;51.214;9.202;2023-03-03T10:48:31;42.25;;;17.77;;
30617;SDS011;17384;51.214;9.202;2023-03-03T10:56:01;34.78;;;14.82;;
30617;SDS011;17384;51.214;9.202;2023-03-03T10:58:52;37.83;;;15.88;;
30617;SDS011;17384;51.214;9.202;2023-03-03T11:01:41;32.75;;;13.68;;
30617;SDS011;17384;51.214;9.202;2023-03-03T11:04:47;27.98;;;12.75;;
30617;SDS011;17384;51.214;9.202;2023-03-03T11:07:26;33.75;;;13.68;;
30617;SDS011;17384;51.214;9.202;2023-03-03T11:10:17;37.95;;;14.38;;
30617;SDS011;17384;51.214;9.202;2023-03-03T11:16:27;30.25;;;12.95;;
30617;SDS011;17384;51.214;9.202;2023-03-03T11:27:00;29.90;;;13.00;;
30617;SDS011;17384;51.214;9.202;2023-03-03T11:32:22;29.65;;;14.27;;
30617;SDS011;17384;51.214;9.202;2023-03-03T11:35:04;29.77;;;13.00;;
30617;SDS011;17384;51.214;9.202;2023-03-03T11:40:14;30.08;;;12.13;;
30617;SDS011;17384;51.214;9.202;2023-03-03T11:42:51;24.25;;;11.25;;
30617;SDS011;17384;51.214;9.202;2023-03-03T11:45:30;30.52;;;12.70;;
30617;SDS011;17384;51.214;9.202;2023-03-03T11:50:48;33.47;;;14.57;;
30617;SDS011;17384;51.214;9.202;2023-03-03T11:53:53;31.52;;;12.60;;
30617;SDS011;17384;51.214;9.202;2023-03-03T11:56:26;36.65;;;14.57;;
30617;SDS011;17384;51.214;9.202;2023-03-03T12:04:12;34.58;;;14.65;;
30617;SDS011;17384;51.214;9.202;2023-03-03T12:12:05;29.92;;;13.32;;
30617;SDS011;17384;51.214;9.202;2023-03-03T12:17:10;33.30;;;14.07;;
30617;SDS011;17384;51.214;9.202;2023-03-03T12:36:54;36.00;;;13.98;;
30617;SDS011;17384;51.214;9.202;2023-03-03T12:42:19;35.25;;;15.10;;
30617;SDS011;17384;51.214;9.202;2023-03-03T12:47:38;29.48;;;13.25;;
30617;SDS011;17384;51.214;9.202;2023-03-03T12:50:20;33.38;;;13.98;;
30617;SDS011;17384;51.214;9.202;2023-03-03T13:04:27;31.77;;;12.82;;
30617;SDS011;17384;51.214;9.202;2023-03-03T13:07:18;28.02;;;12.45;;
30617;SDS011;17384;51.214;9.202;2023-03-03T13:12:50;28.00;;;11.13;;
30617;SDS011;17384;51.214;9.202;2023-03-03T13:15:22;28.77;;;12.20;;
30617;SDS011;17384;51.214;9.202;2023-03-03T13:20:33;28.33;;;12.30;;
30617;SDS011;17384;51.214;9.202;2023-03-03T13:26:02;31.23;;;13.30;;
30617;SDS011;17384;51.214;9.202;2023-03-03T13:28:36;24.75;;;11.23;;
30617;SDS011;17384;51.214;9.202;2023-03-03T13:33:35;30.45;;;12.95;;
30617;SDS011;17384;51.214;9.202;2023-03-03T13:36:02;28.52;;;12.15;;
30617;SDS011;17384;51.214;9.202;2023-03-03T13:38:34;32.00;;;12.32;;
30617;SDS011;17384;51.214;9.202;2023-03-03T13:41:06;25.20;;;11.43;;
30617;SDS011;17384;51.214;9.202;2023-03-03T13:49:36;26.77;;;11.27;;
30617;SDS011;17384;51.214;9.202;2023-03-03T14:05:12;31.75;;;12.77;;
30617;SDS011;17384;51.214;9.202;2023-03-03T14:07:58;26.67;;;11.75;;
30617;SDS011;17384;51.214;9.202;2023-03-03T14:10:31;27.30;;;12.63;;
30617;SDS011;17384;51.214;9.202;2023-03-03T14:13:06;26.15;;;11.57;;
30617;SDS011;17384;51.214;9.202;2023-03-03T14:15:40;25.83;;;10.98;;
30617;SDS011;17384;51.214;9.202;2023-03-03T14:20:49;31.25;;;12.40;;
30617;SDS011;17384;51.214;9.202;2023-03-03T14:25:55;29.10;;;11.32;;
30617;SDS011;17384;51.214;9.202;2023-03-03T14:28:23;31.38;;;12.23;;
30617;SDS011;17384;51.214;9.202;2023-03-03T14:30:55;29.80;;;12.57;;
30617;SDS011;17384;51.214;9.202;2023-03-03T14:33:25;24.80;;;10.77;;
30617;SDS011;17384;51.214;9.202;2023-03-03T14:44:49;28.08;;;11.75;;
30617;SDS011;17384;51.214;9.202;2023-03-03T14:47:15;36.80;;;16.02;;
30617;SDS011;17384;51.214;9.202;2023-03-03T14:49:45;32.47;;;13.38;;
30617;SDS011;17384;51.214;9.202;2023-03-03T14:54:49;28.50;;;11.98;;
30617;SDS011;17384;51.214;9.202;2023-03-03T15:00:03;28.80;;;12.00;;
30617;SDS011;17384;51.214;9.202;2023-03-03T15:05:23;32.97;;;13.05;;
30617;SDS011;17384;51.214;9.202;2023-03-03T15:07:52;30.25;;;12.80;;
30617;SDS011;17384;51.214;9.202;2023-03-03T15:10:55;28.60;;;11.32;;
30617;SDS011;17384;51.214;9.202;2023-03-03T15:15:51;27.10;;;12.63;;
30617;SDS011;17384;51.214;9.202;2023-03-03T15:18:23;26.50;;;12.13;;
30617;SDS011;17384;51.214;9.202;2023-03-03T15:23:34;28.60;;;12.50;;
30617;SDS011;17384;51.214;9.202;2023-03-03T15:29:07;31.80;;;12.75;;
30617;SDS011;17384;51.214;9.202;2023-03-03T15:47:59;32.80;;;14.48;;
30617;SDS011;17384;51.214;9.202;2023-03-03T16:03:55;34.30;;;12.88;;
30617;SDS011;17384;51.214;9.202;2023-03-03T16:14:57;25.10;;;11.55;;
30617;SDS011;17384;51.214;9.202;2023-03-03T16:17:55;30.90;;;13.27;;
30617;SDS011;17384;51.214;9.202;2023-03-03T16:20:31;27.40;;;11.25;;
30617;SDS011;17384;51.214;9.202;2023-03-03T16:26:18;29.83;;;11.85;;
30617;SDS011;17384;51.214;9.202;2023-03-03T16:42:26;29.08;;;12.07;;
30617;SDS011;17384;51.214;9.202;2023-03-03T16:53:23;28.60;;;12.20;;
30617;SDS011;17384;51.214;9.202;2023-03-03T17:01:42;22.50;;;11.35;;
30617;SDS011;17384;51.214;9.202;2023-03-03T17:04:13;23.75;;;10.82;;
30617;SDS011;17384;51.214;9.202;2023-03-03T17:06:54;22.38;;;10.20;;
30617;SDS011;17384;51.214;9.202;2023-03-03T17:15:07;23.70;;;10.13;;
30617;SDS011;17384;51.214;9.202;2023-03-03T17:17:42;30.00;;;11.48;;
30617;SDS011;17384;51.214;9.202;2023-03-03T17:25:43;27.10;;;12.05;;
30617;SDS011;17384;51.214;9.202;2023-03-03T17:28:18;28.13;;;11.63;;
30617;SDS011;17384;51.214;9.202;2023-03-03T18:18:28;27.85;;;11.70;;
30617;SDS011;17384;51.214;9.202;2023-03-03T18:21:07;29.83;;;12.18;;
30617;SDS011;17384;51.214;9.202;2023-03-03T18:23:43;28.58;;;10.52;;
30617;SDS011;17384;51.214;9.202;2023-03-03T18:31:45;30.52;;;12.15;;
30617;SDS011;17384;51.214;9.202;2023-03-03T18:34:37;27.25;;;13.30;;
30617;SDS011;17384;51.214;9.202;2023-03-03T18:45:09;32.53;;;12.50;;
30617;SDS011;17384;51.214;9.202;2023-03-03T18:50:41;31.85;;;12.40;;
30617;SDS011;17384;51.214;9.202;2023-03-03T18:55:51;31.92;;;13.07;;
30617;SDS011;17384;51.214;9.202;2023-03-03T19:01:11;40.63;;;16.70;;
30617;SDS011;17384;51.214;9.202;2023-03-03T19:06:11;38.90;;;15.18;;
30617;SDS011;17384;51.214;9.202;2023-03-03T19:09:20;40.15;;;17.15;;
30617;SDS011;17384;51.214;9.202;2023-03-03T19:12:40;40.88;;;19.65;;
30617;SDS011;17384;51.214;9.202;2023-03-03T19:18:16;58.35;;;24.10;;
30617;SDS011;17384;51.214;9.202;2023-03-03T19:23:45;34.38;;;12.75;;
30617;SDS011;17384;51.214;9.202;2023-03-03T19:48:20;97.68;;;28.17;;
30617;SDS011;17384;51.214;9.202;2023-03-03T19:57:33;84.60;;;26.07;;
30617;SDS011;17384;51.214;9.202;2023-03-03T20:08:42;83.18;;;25.50;;
30617;SDS011;17384;51.214;9.202;2023-03-03T20:11:21;79.00;;;25.53;;
30617;SDS011;17384;51.214;9.202;2023-03-03T20:13:59;86.32;;;27.83;;
30617;SDS011;17384;51.214;9.202;2023-03-03T20:16:39;74.43;;;24.00;;
30617;SDS011;17384;51.214;9.202;2023-03-03T20:19:14;73.35;;;23.85;;
30617;SDS011;17384;51.214;9.202;2023-03-03T20:26:59;57.45;;;21.83;;
30617;SDS011;17384;51.214;9.202;2023-03-03T20:43:15;54.63;;;19.35;;
30617;SDS011;17384;51.214;9.202;2023-03-03T20:45:59;54.40;;;20.42;;
30617;SDS011;17384;51.214;9.202;2023-03-03T20:51:12;55.75;;;18.85;;
30617;SDS011;17384;51.214;9.202;2023-03-03T20:56:21;50.80;;;19.02;;
30617;SDS011;17384;51.214;9.202;2023-03-03T20:59:12;50.88;;;18.55;;
30617;SDS011;17384;51.214;9.202;2023-03-03T21:02:06;55.55;;;20.27;;
30617;SDS011;17384;51.214;9.202;2023-03-03T21:05:13;64.68;;;23.58;;
30617;SDS011;17384;51.214;9.202;2023-03-03T21:10:27;73.72;;;26.13;;
30617;SDS011;17384;51.214;9.202;2023-03-03T21:12:58;71.00;;;23.63;;
30617;SDS011;17384;51.214;9.202;2023-03-03T21:16:41;71.75;;;25.20;;
30617;SDS011;17384;51.214;9.202;2023-03-03T21:18:56;58.80;;;21.08;;
30617;SDS011;17384;51.214;9.202;2023-03-03T21:21:37;59.28;;;20.35;;
30617;SDS011;17384;51.214;9.202;2023-03-03T21:24:06;63.80;;;21.20;;
30617;SDS011;17384;51.214;9.202;2023-03-03T21:29:14;63.40;;;21.27;;
30617;SDS011;17384;51.214;9.202;2023-03-03T21:32:04;67.28;;;21.52;;
30617;SDS011;17384;51.214;9.202;2023-03-03T21:34:32;70.40;;;23.08;;
30617;SDS011;17384;51.214;9.202;2023-03-03T21:37:03;80.18;;;23.13;;
30617;SDS011;17384;51.214;9.202;2023-03-03T21:39:30;75.07;;;25.00;;
30617;SDS011;17384;51.214;9.202;2023-03-03T21:41:59;84.38;;;24.38;;
30617;SDS011;17384;51.214;9.202;2023-03-03T21:44:28;88.15;;;25.50;;
30617;SDS011;17384;51.214;9.202;2023-03-03T21:46:54;90.43;;;27.83;;
30617;SDS011;17384;51.214;9.202;2023-03-03T21:49:19;70.00;;;24.67;;
30617;SDS011;17384;51.214;9.202;2023-03-03T21:51:45;79.38;;;25.75;;
30617;SDS011;17384;51.214;9.202;2023-03-03T21:54:10;81.43;;;25.00;;
30617;SDS011;17384;51.214;9.202;2023-03-03T21:56:35;78.68;;;25.98;;
30617;SDS011;17384;51.214;9.202;2023-03-03T21:59:02;76.20;;;26.10;;
30617;SDS011;17384;51.214;9.202;2023-03-03T22:01:27;85.15;;;28.02;;
30617;SDS011;17384;51.214;9.202;2023-03-03T22:03:53;78.88;;;26.55;;
30617;SDS011;17384;51.214;9.202;2023-03-03T22:06:18;85.78;;;26.17;;
30617;SDS011;17384;51.214;9.202;2023-03-03T22:08:44;94.20;;;27.70;;
30617;SDS011;17384;51.214;9.202;2023-03-03T22:11:09;81.30;;;26.27;;
30617;SDS011;17384;51.214;9.202;2023-03-03T22:13:35;91.55;;;26.25;;
30617;SDS011;17384;51.214;9.202;2023-03-03T22:16:00;75.35;;;26.45;;
30617;SDS011;17384;51.214;9.202;2023-03-03T22:18:26;73.40;;;27.02;;